sensor_id;sensor_type;location;lat;lon;timestamp;temperature;humidity
54192;DHT22;40101;53.002;6.488;2023-08-17T00:00:42;16.20;99.90
54192;DHT22;40101;53.002;6.488;2023-08-17T00:03:08;15.80;99.90
54192;DHT22;40101;53.002;6.488;2023-08-17T00:05:33;16.20;99.90
54192;DHT22;40101;53.002;6.488;2023-08-17T00:08:02;16.30;99.90
54192;DHT22;40101;53.002;6.488;2023-08-17T00:10:28;15.90;99.90
54192;DHT22;40101;53.002;6.488;2023-08-17T00:12:54;16.40;99.90
54192;DHT22;40101;53.002;6.488;2023-08-17T00:15:20;15.90;99.90
54192;DHT22;40101;53.002;6.488;2023-08-17T00:17:45;15.90;99.90
54192;DHT22;40101;53.002;6.488;2023-08-17T00:20:11;16.10;99.90
54192;DHT22;40101;53.002;6.488;2023-08-17T00:22:37;15.90;99.90
54192;DHT22;40101;53.002;6.488;2023-08-17T00:25:03;15.80;99.90
54192;DHT22;40101;53.002;6.488;2023-08-17T00:27:32;15.90;99.90
54192;DHT22;40101;53.002;6.488;2023-08-17T00:29:58;16.30;99.90
54192;DHT22;40101;53.002;6.488;2023-08-17T00:32:23;16.30;99.90
54192;DHT22;40101;53.002;6.488;2023-08-17T00:34:49;16.00;99.90
54192;DHT22;40101;53.002;6.488;2023-08-17T00:37:15;16.00;99.90
54192;DHT22;40101;53.002;6.488;2023-08-17T00:39:40;16.10;99.90
54192;DHT22;40101;53.002;6.488;2023-08-17T00:42:06;16.10;99.90
54192;DHT22;40101;53.002;6.488;2023-08-17T00:44:33;16.40;99.90
54192;DHT22;40101;53.002;6.488;2023-08-17T00:46:59;16.00;99.90
54192;DHT22;40101;53.002;6.488;2023-08-17T00:49:25;16.30;99.90
54192;DHT22;40101;53.002;6.488;2023-08-17T00:51:51;15.90;99.90
54192;DHT22;40101;53.002;6.488;2023-08-17T00:54:25;15.90;99.90
54192;DHT22;40101;53.002;6.488;2023-08-17T00:56:53;15.90;99.90
54192;DHT22;40101;53.002;6.488;2023-08-17T00:59:20;16.10;99.90
54192;DHT22;40101;53.002;6.488;2023-08-17T01:01:46;15.90;99.90
54192;DHT22;40101;53.002;6.488;2023-08-17T01:04:13;15.90;99.90
54192;DHT22;40101;53.002;6.488;2023-08-17T01:06:38;16.20;99.90
54192;DHT22;40101;53.002;6.488;2023-08-17T01:09:05;15.90;99.90
54192;DHT22;40101;53.002;6.488;2023-08-17T01:11:36;16.10;99.90
54192;DHT22;40101;53.002;6.488;2023-08-17T01:14:11;16.40;99.90
54192;DHT22;40101;53.002;6.488;2023-08-17T01:17:00;15.70;99.90
54192;DHT22;40101;53.002;6.488;2023-08-17T01:19:29;15.70;99.90
54192;DHT22;40101;53.002;6.488;2023-08-17T01:22:00;15.70;99.90
54192;DHT22;40101;53.002;6.488;2023-08-17T01:24:28;15.80;99.90
54192;DHT22;40101;53.002;6.488;2023-08-17T01:26:54;15.50;99.90
54192;DHT22;40101;53.002;6.488;2023-08-17T01:29:20;15.50;99.90
54192;DHT22;40101;53.002;6.488;2023-08-17T01:32:01;15.40;99.90
54192;DHT22;40101;53.002;6.488;2023-08-17T01:34:31;15.40;99.90
54192;DHT22;40101;53.002;6.488;2023-08-17T01:37:00;15.40;99.90
54192;DHT22;40101;53.002;6.488;2023-08-17T01:39:31;15.40;99.90
54192;DHT22;40101;53.002;6.488;2023-08-17T01:41:58;15.30;99.90
54192;DHT22;40101;53.002;6.488;2023-08-17T01:44:25;15.30;99.90
54192;DHT22;40101;53.002;6.488;2023-08-17T01:46:53;15.30;99.90
54192;DHT22;40101;53.002;6.488;2023-08-17T01:49:18;15.30;99.90
54192;DHT22;40101;53.002;6.488;2023-08-17T01:51:44;15.10;99.90
54192;DHT22;40101;53.002;6.488;2023-08-17T01:54:10;15.20;99.90
54192;DHT22;40101;53.002;6.488;2023-08-17T01:56:35;15.10;99.90
54192;DHT22;40101;53.002;6.488;2023-08-17T01:59:01;15.10;99.90
54192;DHT22;40101;53.002;6.488;2023-08-17T02:01:26;15.50;99.90
54192;DHT22;40101;53.002;6.488;2023-08-17T02:03:53;15.60;99.90
54192;DHT22;40101;53.002;6.488;2023-08-17T02:06:19;15.20;99.90
54192;DHT22;40101;53.002;6.488;2023-08-17T02:08:45;15.30;99.90
54192;DHT22;40101;53.002;6.488;2023-08-17T02:11:10;15.60;99.90
54192;DHT22;40101;53.002;6.488;2023-08-17T02:13:36;15.10;99.90
54192;DHT22;40101;53.002;6.488;2023-08-17T02:16:06;15.30;99.90
54192;DHT22;40101;53.002;6.488;2023-08-17T02:18:32;15.10;99.90
54192;DHT22;40101;53.002;6.488;2023-08-17T02:21:00;15.40;99.90
54192;DHT22;40101;53.002;6.488;2023-08-17T02:23:25;15.30;99.90
54192;DHT22;40101;53.002;6.488;2023-08-17T02:25:51;15.20;99.90
54192;DHT22;40101;53.002;6.488;2023-08-17T02:28:17;15.70;99.90
54192;DHT22;40101;53.002;6.488;2023-08-17T02:30:43;15.20;99.90
54192;DHT22;40101;53.002;6.488;2023-08-17T02:33:09;15.20;99.90
54192;DHT22;40101;53.002;6.488;2023-08-17T02:35:35;15.60;99.90
54192;DHT22;40101;53.002;6.488;2023-08-17T02:38:00;15.10;99.90
54192;DHT22;40101;53.002;6.488;2023-08-17T02:40:26;15.50;99.90
54192;DHT22;40101;53.002;6.488;2023-08-17T02:42:52;15.20;99.90
54192;DHT22;40101;53.002;6.488;2023-08-17T02:45:17;15.10;99.90
54192;DHT22;40101;53.002;6.488;2023-08-17T02:47:43;15.30;99.90
54192;DHT22;40101;53.002;6.488;2023-08-17T02:50:09;15.10;99.90
54192;DHT22;40101;53.002;6.488;2023-08-17T02:52:35;15.30;99.90
54192;DHT22;40101;53.002;6.488;2023-08-17T02:55:01;15.40;99.90
54192;DHT22;40101;53.002;6.488;2023-08-17T02:57:27;15.10;99.90
54192;DHT22;40101;53.002;6.488;2023-08-17T02:59:52;15.10;99.90
54192;DHT22;40101;53.002;6.488;2023-08-17T03:02:18;14.50;99.90
54192;DHT22;40101;53.002;6.488;2023-08-17T03:04:44;15.50;99.90
54192;DHT22;40101;53.002;6.488;2023-08-17T03:07:09;15.10;99.90
54192;DHT22;40101;53.002;6.488;2023-08-17T03:09:35;15.10;99.90
54192;DHT22;40101;53.002;6.488;2023-08-17T03:12:00;15.10;99.90
54192;DHT22;40101;53.002;6.488;2023-08-17T03:14:26;15.20;99.90
54192;DHT22;40101;53.002;6.488;2023-08-17T03:16:52;15.00;99.90
54192;DHT22;40101;53.002;6.488;2023-08-17T03:19:18;15.00;99.90
54192;DHT22;40101;53.002;6.488;2023-08-17T03:21:43;15.00;99.90
54192;DHT22;40101;53.002;6.488;2023-08-17T03:24:09;15.30;99.90
54192;DHT22;40101;53.002;6.488;2023-08-17T03:26:35;15.40;99.90
54192;DHT22;40101;53.002;6.488;2023-08-17T03:29:00;15.00;99.90
54192;DHT22;40101;53.002;6.488;2023-08-17T03:31:26;14.90;99.90
54192;DHT22;40101;53.002;6.488;2023-08-17T03:33:52;15.10;99.90
54192;DHT22;40101;53.002;6.488;2023-08-17T03:36:17;15.40;99.90
54192;DHT22;40101;53.002;6.488;2023-08-17T03:38:43;15.00;99.90
54192;DHT22;40101;53.002;6.488;2023-08-17T03:41:09;14.90;99.90
54192;DHT22;40101;53.002;6.488;2023-08-17T03:43:35;15.00;99.90
54192;DHT22;40101;53.002;6.488;2023-08-17T03:46:03;15.10;99.90
54192;DHT22;40101;53.002;6.488;2023-08-17T03:48:29;15.20;99.90
54192;DHT22;40101;53.002;6.488;2023-08-17T03:50:55;15.10;99.90
54192;DHT22;40101;53.002;6.488;2023-08-17T03:53:21;15.10;99.90
54192;DHT22;40101;53.002;6.488;2023-08-17T03:55:48;15.20;99.90
54192;DHT22;40101;53.002;6.488;2023-08-17T03:58:14;15.30;99.90
54192;DHT22;40101;53.002;6.488;2023-08-17T04:00:40;15.10;99.90
54192;DHT22;40101;53.002;6.488;2023-08-17T04:03:06;14.90;99.90
54192;DHT22;40101;53.002;6.488;2023-08-17T04:05:32;14.90;99.90
54192;DHT22;40101;53.002;6.488;2023-08-17T04:07:59;15.30;99.90
54192;DHT22;40101;53.002;6.488;2023-08-17T04:10:28;14.80;99.90
54192;DHT22;40101;53.002;6.488;2023-08-17T04:12:54;14.80;99.90
54192;DHT22;40101;53.002;6.488;2023-08-17T04:15:19;15.00;99.90
54192;DHT22;40101;53.002;6.488;2023-08-17T04:17:45;14.80;99.90
54192;DHT22;40101;53.002;6.488;2023-08-17T04:20:11;14.80;99.90
54192;DHT22;40101;53.002;6.488;2023-08-17T04:22:37;14.90;99.90
54192;DHT22;40101;53.002;6.488;2023-08-17T04:25:03;14.90;99.90
54192;DHT22;40101;53.002;6.488;2023-08-17T04:27:29;14.90;99.90
54192;DHT22;40101;53.002;6.488;2023-08-17T04:29:54;15.10;99.90
54192;DHT22;40101;53.002;6.488;2023-08-17T04:32:20;15.50;99.90
54192;DHT22;40101;53.002;6.488;2023-08-17T04:34:46;14.90;99.90
54192;DHT22;40101;53.002;6.488;2023-08-17T04:37:12;14.90;99.90
54192;DHT22;40101;53.002;6.488;2023-08-17T04:39:37;14.90;99.90
54192;DHT22;40101;53.002;6.488;2023-08-17T04:42:04;15.00;99.90
54192;DHT22;40101;53.002;6.488;2023-08-17T04:44:29;15.00;99.90
54192;DHT22;40101;53.002;6.488;2023-08-17T04:46:55;15.00;99.90
54192;DHT22;40101;53.002;6.488;2023-08-17T04:49:21;15.30;99.90
54192;DHT22;40101;53.002;6.488;2023-08-17T04:51:46;15.00;99.90
54192;DHT22;40101;53.002;6.488;2023-08-17T04:54:12;15.40;99.90
54192;DHT22;40101;53.002;6.488;2023-08-17T04:56:38;15.00;99.90
54192;DHT22;40101;53.002;6.488;2023-08-17T04:59:04;15.00;99.90
54192;DHT22;40101;53.002;6.488;2023-08-17T05:01:30;15.00;99.90
54192;DHT22;40101;53.002;6.488;2023-08-17T05:03:57;15.20;99.90
54192;DHT22;40101;53.002;6.488;2023-08-17T05:06:23;15.30;99.90
54192;DHT22;40101;53.002;6.488;2023-08-17T05:08:48;15.20;99.90
54192;DHT22;40101;53.002;6.488;2023-08-17T05:11:14;15.10;99.90
54192;DHT22;40101;53.002;6.488;2023-08-17T05:13:39;15.30;99.90
54192;DHT22;40101;53.002;6.488;2023-08-17T05:16:05;15.30;99.90
54192;DHT22;40101;53.002;6.488;2023-08-17T05:18:31;15.30;99.90
54192;DHT22;40101;53.002;6.488;2023-08-17T05:20:57;15.40;99.90
54192;DHT22;40101;53.002;6.488;2023-08-17T05:23:22;15.80;99.90
54192;DHT22;40101;53.002;6.488;2023-08-17T05:25:48;15.70;99.90
54192;DHT22;40101;53.002;6.488;2023-08-17T05:28:14;15.50;99.90
54192;DHT22;40101;53.002;6.488;2023-08-17T05:30:39;15.70;99.90
54192;DHT22;40101;53.002;6.488;2023-08-17T05:33:05;15.70;99.90
54192;DHT22;40101;53.002;6.488;2023-08-17T05:35:32;15.70;99.90
54192;DHT22;40101;53.002;6.488;2023-08-17T05:37:57;15.70;99.90
54192;DHT22;40101;53.002;6.488;2023-08-17T05:40:23;15.90;99.90
54192;DHT22;40101;53.002;6.488;2023-08-17T05:42:49;15.90;99.90
54192;DHT22;40101;53.002;6.488;2023-08-17T05:45:15;16.00;99.90
54192;DHT22;40101;53.002;6.488;2023-08-17T05:47:40;16.10;99.90
54192;DHT22;40101;53.002;6.488;2023-08-17T05:50:06;16.20;99.90
54192;DHT22;40101;53.002;6.488;2023-08-17T05:52:32;16.30;99.90
54192;DHT22;40101;53.002;6.488;2023-08-17T05:54:58;16.60;99.90
54192;DHT22;40101;53.002;6.488;2023-08-17T05:57:23;16.40;99.90
54192;DHT22;40101;53.002;6.488;2023-08-17T05:59:49;16.50;99.90
54192;DHT22;40101;53.002;6.488;2023-08-17T06:02:14;16.60;99.90
54192;DHT22;40101;53.002;6.488;2023-08-17T06:04:40;16.50;99.90
54192;DHT22;40101;53.002;6.488;2023-08-17T06:07:06;16.60;99.90
54192;DHT22;40101;53.002;6.488;2023-08-17T06:09:32;16.60;99.90
54192;DHT22;40101;53.002;6.488;2023-08-17T06:11:57;16.60;99.90
54192;DHT22;40101;53.002;6.488;2023-08-17T06:14:23;16.80;99.90
54192;DHT22;40101;53.002;6.488;2023-08-17T06:16:49;16.60;99.90
54192;DHT22;40101;53.002;6.488;2023-08-17T06:19:15;16.60;99.90
54192;DHT22;40101;53.002;6.488;2023-08-17T06:21:40;16.70;99.90
54192;DHT22;40101;53.002;6.488;2023-08-17T06:24:06;16.50;99.90
54192;DHT22;40101;53.002;6.488;2023-08-17T06:26:32;16.60;99.90
54192;DHT22;40101;53.002;6.488;2023-08-17T06:28:57;16.60;99.90
54192;DHT22;40101;53.002;6.488;2023-08-17T06:31:23;16.60;99.90
54192;DHT22;40101;53.002;6.488;2023-08-17T06:33:53;16.60;99.90
54192;DHT22;40101;53.002;6.488;2023-08-17T06:36:20;16.60;99.90
54192;DHT22;40101;53.002;6.488;2023-08-17T06:38:45;16.50;99.90
54192;DHT22;40101;53.002;6.488;2023-08-17T06:41:11;16.50;99.90
54192;DHT22;40101;53.002;6.488;2023-08-17T06:43:36;16.60;99.90
54192;DHT22;40101;53.002;6.488;2023-08-17T06:46:02;16.60;99.90
54192;DHT22;40101;53.002;6.488;2023-08-17T06:48:28;16.60;99.90
54192;DHT22;40101;53.002;6.488;2023-08-17T06:50:54;16.60;99.90
54192;DHT22;40101;53.002;6.488;2023-08-17T06:53:19;16.70;99.90
54192;DHT22;40101;53.002;6.488;2023-08-17T06:55:45;16.90;99.90
54192;DHT22;40101;53.002;6.488;2023-08-17T06:58:11;16.90;99.90
54192;DHT22;40101;53.002;6.488;2023-08-17T07:00:36;16.90;99.90
54192;DHT22;40101;53.002;6.488;2023-08-17T07:03:04;17.10;99.90
54192;DHT22;40101;53.002;6.488;2023-08-17T07:05:30;17.00;99.90
54192;DHT22;40101;53.002;6.488;2023-08-17T07:07:55;17.10;99.90
54192;DHT22;40101;53.002;6.488;2023-08-17T07:10:22;17.20;99.90
54192;DHT22;40101;53.002;6.488;2023-08-17T07:12:48;17.40;99.90
54192;DHT22;40101;53.002;6.488;2023-08-17T07:15:14;17.60;99.90
54192;DHT22;40101;53.002;6.488;2023-08-17T07:17:40;17.90;99.90
54192;DHT22;40101;53.002;6.488;2023-08-17T07:20:06;18.20;99.90
54192;DHT22;40101;53.002;6.488;2023-08-17T07:22:38;18.40;99.90
54192;DHT22;40101;53.002;6.488;2023-08-17T07:25:04;18.70;99.90
54192;DHT22;40101;53.002;6.488;2023-08-17T07:27:30;18.60;99.90
54192;DHT22;40101;53.002;6.488;2023-08-17T07:29:55;18.60;99.90
54192;DHT22;40101;53.002;6.488;2023-08-17T07:32:21;18.60;99.90
54192;DHT22;40101;53.002;6.488;2023-08-17T07:34:47;18.40;99.90
54192;DHT22;40101;53.002;6.488;2023-08-17T07:37:13;18.20;99.90
54192;DHT22;40101;53.002;6.488;2023-08-17T07:39:39;18.10;99.90
54192;DHT22;40101;53.002;6.488;2023-08-17T07:42:04;18.00;99.90
54192;DHT22;40101;53.002;6.488;2023-08-17T07:44:30;17.90;99.90
54192;DHT22;40101;53.002;6.488;2023-08-17T07:47:00;18.00;99.90
54192;DHT22;40101;53.002;6.488;2023-08-17T07:49:27;17.90;99.90
54192;DHT22;40101;53.002;6.488;2023-08-17T07:51:53;18.00;99.90
54192;DHT22;40101;53.002;6.488;2023-08-17T07:54:18;18.10;99.90
54192;DHT22;40101;53.002;6.488;2023-08-17T07:56:44;18.30;99.90
54192;DHT22;40101;53.002;6.488;2023-08-17T07:59:09;18.30;99.90
54192;DHT22;40101;53.002;6.488;2023-08-17T08:01:35;18.40;99.90
54192;DHT22;40101;53.002;6.488;2023-08-17T08:04:02;18.30;99.90
54192;DHT22;40101;53.002;6.488;2023-08-17T08:06:27;18.40;99.90
54192;DHT22;40101;53.002;6.488;2023-08-17T08:08:53;18.40;99.90
54192;DHT22;40101;53.002;6.488;2023-08-17T08:11:20;18.30;99.90
54192;DHT22;40101;53.002;6.488;2023-08-17T08:13:46;18.60;99.90
54192;DHT22;40101;53.002;6.488;2023-08-17T08:16:12;18.30;99.90
54192;DHT22;40101;53.002;6.488;2023-08-17T08:18:37;18.60;99.90
54192;DHT22;40101;53.002;6.488;2023-08-17T08:21:03;18.50;99.90
54192;DHT22;40101;53.002;6.488;2023-08-17T08:23:29;18.60;99.90
54192;DHT22;40101;53.002;6.488;2023-08-17T08:25:55;18.70;99.90
54192;DHT22;40101;53.002;6.488;2023-08-17T08:28:20;19.00;99.90
54192;DHT22;40101;53.002;6.488;2023-08-17T08:30:46;20.10;99.90
54192;DHT22;40101;53.002;6.488;2023-08-17T08:33:11;21.30;99.90
54192;DHT22;40101;53.002;6.488;2023-08-17T08:35:38;22.00;99.90
54192;DHT22;40101;53.002;6.488;2023-08-17T08:38:04;22.90;99.90
54192;DHT22;40101;53.002;6.488;2023-08-17T08:40:30;23.80;99.90
54192;DHT22;40101;53.002;6.488;2023-08-17T08:42:59;24.40;99.90
54192;DHT22;40101;53.002;6.488;2023-08-17T08:45:28;24.90;99.90
54192;DHT22;40101;53.002;6.488;2023-08-17T08:47:56;25.30;99.90
54192;DHT22;40101;53.002;6.488;2023-08-17T08:50:25;25.50;99.90
54192;DHT22;40101;53.002;6.488;2023-08-17T08:53:01;25.20;99.90
54192;DHT22;40101;53.002;6.488;2023-08-17T08:55:29;24.90;99.90
54192;DHT22;40101;53.002;6.488;2023-08-17T08:57:56;25.00;99.90
54192;DHT22;40101;53.002;6.488;2023-08-17T09:00:22;25.00;99.90
54192;DHT22;40101;53.002;6.488;2023-08-17T09:02:50;24.60;99.90
54192;DHT22;40101;53.002;6.488;2023-08-17T09:05:16;24.30;99.90
54192;DHT22;40101;53.002;6.488;2023-08-17T09:07:42;24.10;99.90
54192;DHT22;40101;53.002;6.488;2023-08-17T09:10:09;23.80;99.90
54192;DHT22;40101;53.002;6.488;2023-08-17T09:12:35;23.50;99.90
54192;DHT22;40101;53.002;6.488;2023-08-17T09:15:01;23.60;99.90
54192;DHT22;40101;53.002;6.488;2023-08-17T09:17:27;24.10;99.90
54192;DHT22;40101;53.002;6.488;2023-08-17T09:19:53;24.30;99.90
54192;DHT22;40101;53.002;6.488;2023-08-17T09:25:01;23.30;99.90
54192;DHT22;40101;53.002;6.488;2023-08-17T09:27:27;22.60;99.90
54192;DHT22;40101;53.002;6.488;2023-08-17T09:30:00;22.10;99.90
54192;DHT22;40101;53.002;6.488;2023-08-17T09:32:30;21.70;99.90
54192;DHT22;40101;53.002;6.488;2023-08-17T09:34:55;21.40;99.90
54192;DHT22;40101;53.002;6.488;2023-08-17T09:37:21;21.20;99.90
54192;DHT22;40101;53.002;6.488;2023-08-17T09:39:46;21.10;99.90
54192;DHT22;40101;53.002;6.488;2023-08-17T09:42:12;21.00;99.90
54192;DHT22;40101;53.002;6.488;2023-08-17T09:44:38;21.00;99.90
54192;DHT22;40101;53.002;6.488;2023-08-17T09:47:05;21.00;99.90
54192;DHT22;40101;53.002;6.488;2023-08-17T09:49:34;20.90;99.90
54192;DHT22;40101;53.002;6.488;2023-08-17T09:52:00;20.80;99.90
54192;DHT22;40101;53.002;6.488;2023-08-17T09:54:27;20.80;99.90
54192;DHT22;40101;53.002;6.488;2023-08-17T09:56:56;20.90;99.90
54192;DHT22;40101;53.002;6.488;2023-08-17T09:59:22;21.10;99.90
54192;DHT22;40101;53.002;6.488;2023-08-17T10:01:50;21.10;99.90
54192;DHT22;40101;53.002;6.488;2023-08-17T10:04:20;21.00;99.90
54192;DHT22;40101;53.002;6.488;2023-08-17T10:06:48;21.00;99.90
54192;DHT22;40101;53.002;6.488;2023-08-17T10:09:21;20.90;99.90
54192;DHT22;40101;53.002;6.488;2023-08-17T10:11:49;20.90;99.90
54192;DHT22;40101;53.002;6.488;2023-08-17T10:14:22;21.00;99.90
54192;DHT22;40101;53.002;6.488;2023-08-17T10:17:04;21.20;99.90
54192;DHT22;40101;53.002;6.488;2023-08-17T10:19:39;21.40;99.90
54192;DHT22;40101;53.002;6.488;2023-08-17T10:22:20;21.90;99.90
54192;DHT22;40101;53.002;6.488;2023-08-17T10:24:49;22.20;99.90
54192;DHT22;40101;53.002;6.488;2023-08-17T10:27:16;22.50;99.90
54192;DHT22;40101;53.002;6.488;2023-08-17T10:29:43;22.80;99.90
54192;DHT22;40101;53.002;6.488;2023-08-17T10:32:10;22.90;99.90
54192;DHT22;40101;53.002;6.488;2023-08-17T10:34:37;22.40;99.90
54192;DHT22;40101;53.002;6.488;2023-08-17T10:37:04;22.00;99.90
54192;DHT22;40101;53.002;6.488;2023-08-17T10:39:31;21.70;99.90
54192;DHT22;40101;53.002;6.488;2023-08-17T10:41:58;21.50;99.90
54192;DHT22;40101;53.002;6.488;2023-08-17T10:47:26;21.20;99.90
54192;DHT22;40101;53.002;6.488;2023-08-17T10:50:03;21.10;99.90
54192;DHT22;40101;53.002;6.488;2023-08-17T10:52:35;21.00;99.90
54192;DHT22;40101;53.002;6.488;2023-08-17T10:55:08;21.00;99.90
54192;DHT22;40101;53.002;6.488;2023-08-17T10:57:41;21.00;99.90
54192;DHT22;40101;53.002;6.488;2023-08-17T11:02:51;20.90;99.90
54192;DHT22;40101;53.002;6.488;2023-08-17T11:05:42;20.70;99.90
54192;DHT22;40101;53.002;6.488;2023-08-17T11:08:27;20.70;99.90
54192;DHT22;40101;53.002;6.488;2023-08-17T11:11:09;20.70;99.90
54192;DHT22;40101;53.002;6.488;2023-08-17T11:13:36;20.80;99.90
54192;DHT22;40101;53.002;6.488;2023-08-17T11:16:04;20.80;99.90
54192;DHT22;40101;53.002;6.488;2023-08-17T11:18:30;20.90;99.90
54192;DHT22;40101;53.002;6.488;2023-08-17T11:20:56;21.00;99.90
54192;DHT22;40101;53.002;6.488;2023-08-17T11:23:23;21.00;99.90
54192;DHT22;40101;53.002;6.488;2023-08-17T11:25:49;21.10;99.90
54192;DHT22;40101;53.002;6.488;2023-08-17T11:28:16;21.10;99.90
54192;DHT22;40101;53.002;6.488;2023-08-17T11:30:42;21.10;99.90
54192;DHT22;40101;53.002;6.488;2023-08-17T11:33:08;21.00;99.90
54192;DHT22;40101;53.002;6.488;2023-08-17T11:35:35;20.90;99.90
54192;DHT22;40101;53.002;6.488;2023-08-17T11:38:01;20.90;99.90
54192;DHT22;40101;53.002;6.488;2023-08-17T11:40:28;20.90;99.90
54192;DHT22;40101;53.002;6.488;2023-08-17T11:42:58;20.90;99.90
54192;DHT22;40101;53.002;6.488;2023-08-17T11:45:26;20.90;99.90
54192;DHT22;40101;53.002;6.488;2023-08-17T11:47:52;20.80;99.90
54192;DHT22;40101;53.002;6.488;2023-08-17T11:50:18;20.80;99.90
54192;DHT22;40101;53.002;6.488;2023-08-17T11:52:43;20.80;99.90
54192;DHT22;40101;53.002;6.488;2023-08-17T11:55:09;20.90;99.90
54192;DHT22;40101;53.002;6.488;2023-08-17T11:57:36;20.90;99.90
54192;DHT22;40101;53.002;6.488;2023-08-17T12:00:03;21.10;99.90
54192;DHT22;40101;53.002;6.488;2023-08-17T12:02:32;21.30;99.90
54192;DHT22;40101;53.002;6.488;2023-08-17T12:05:03;21.30;99.90
54192;DHT22;40101;53.002;6.488;2023-08-17T12:07:32;21.40;99.90
54192;DHT22;40101;53.002;6.488;2023-08-17T12:09:58;21.70;99.90
54192;DHT22;40101;53.002;6.488;2023-08-17T12:12:23;21.70;99.90
54192;DHT22;40101;53.002;6.488;2023-08-17T12:14:49;21.80;99.90
54192;DHT22;40101;53.002;6.488;2023-08-17T12:17:16;21.80;99.90
54192;DHT22;40101;53.002;6.488;2023-08-17T12:19:42;21.90;99.90
54192;DHT22;40101;53.002;6.488;2023-08-17T12:22:08;21.90;99.90
54192;DHT22;40101;53.002;6.488;2023-08-17T12:24:33;21.90;99.90
54192;DHT22;40101;53.002;6.488;2023-08-17T12:27:02;21.80;99.90
54192;DHT22;40101;53.002;6.488;2023-08-17T12:29:29;21.70;99.90
54192;DHT22;40101;53.002;6.488;2023-08-17T12:32:01;21.60;99.90
54192;DHT22;40101;53.002;6.488;2023-08-17T12:34:27;21.50;99.90
54192;DHT22;40101;53.002;6.488;2023-08-17T12:36:52;21.50;99.90
54192;DHT22;40101;53.002;6.488;2023-08-17T12:39:18;21.50;99.90
54192;DHT22;40101;53.002;6.488;2023-08-17T12:41:44;21.50;99.90
54192;DHT22;40101;53.002;6.488;2023-08-17T12:44:09;21.40;99.90
54192;DHT22;40101;53.002;6.488;2023-08-17T12:46:41;21.40;99.90
54192;DHT22;40101;53.002;6.488;2023-08-17T12:49:07;21.40;99.90
54192;DHT22;40101;53.002;6.488;2023-08-17T12:51:33;21.30;99.90
54192;DHT22;40101;53.002;6.488;2023-08-17T12:53:59;21.30;99.90
54192;DHT22;40101;53.002;6.488;2023-08-17T12:56:24;21.50;99.90
54192;DHT22;40101;53.002;6.488;2023-08-17T12:58:50;21.30;99.90
54192;DHT22;40101;53.002;6.488;2023-08-17T13:01:15;21.30;99.90
54192;DHT22;40101;53.002;6.488;2023-08-17T13:03:41;21.30;99.90
54192;DHT22;40101;53.002;6.488;2023-08-17T13:06:07;21.30;99.90
54192;DHT22;40101;53.002;6.488;2023-08-17T13:08:33;21.30;99.90
54192;DHT22;40101;53.002;6.488;2023-08-17T13:10:59;21.30;99.90
54192;DHT22;40101;53.002;6.488;2023-08-17T13:13:25;21.20;99.90
54192;DHT22;40101;53.002;6.488;2023-08-17T13:15:51;21.30;99.90
54192;DHT22;40101;53.002;6.488;2023-08-17T13:18:16;21.30;99.90
54192;DHT22;40101;53.002;6.488;2023-08-17T13:20:42;21.40;99.90
54192;DHT22;40101;53.002;6.488;2023-08-17T13:23:09;21.40;99.90
54192;DHT22;40101;53.002;6.488;2023-08-17T13:25:35;21.50;99.90
54192;DHT22;40101;53.002;6.488;2023-08-17T13:28:01;21.50;99.90
54192;DHT22;40101;53.002;6.488;2023-08-17T13:30:26;21.50;99.90
54192;DHT22;40101;53.002;6.488;2023-08-17T13:32:52;21.50;99.90
54192;DHT22;40101;53.002;6.488;2023-08-17T13:35:17;21.50;99.90
54192;DHT22;40101;53.002;6.488;2023-08-17T13:37:43;21.50;99.90
54192;DHT22;40101;53.002;6.488;2023-08-17T13:40:09;21.50;99.90
54192;DHT22;40101;53.002;6.488;2023-08-17T13:42:35;21.50;99.90
54192;DHT22;40101;53.002;6.488;2023-08-17T13:45:02;21.50;99.90
54192;DHT22;40101;53.002;6.488;2023-08-17T13:47:28;21.50;99.90
54192;DHT22;40101;53.002;6.488;2023-08-17T13:49:54;21.50;99.90
54192;DHT22;40101;53.002;6.488;2023-08-17T13:52:20;21.40;99.90
54192;DHT22;40101;53.002;6.488;2023-08-17T13:54:46;21.50;99.90
54192;DHT22;40101;53.002;6.488;2023-08-17T13:57:12;21.50;99.90
54192;DHT22;40101;53.002;6.488;2023-08-17T13:59:37;21.50;99.90
54192;DHT22;40101;53.002;6.488;2023-08-17T14:02:03;21.50;99.90
54192;DHT22;40101;53.002;6.488;2023-08-17T14:04:29;21.40;99.90
54192;DHT22;40101;53.002;6.488;2023-08-17T14:06:54;21.20;99.90
54192;DHT22;40101;53.002;6.488;2023-08-17T14:09:20;21.20;99.90
54192;DHT22;40101;53.002;6.488;2023-08-17T14:11:45;21.10;99.90
54192;DHT22;40101;53.002;6.488;2023-08-17T14:14:11;21.00;99.90
54192;DHT22;40101;53.002;6.488;2023-08-17T14:16:37;20.90;99.90
54192;DHT22;40101;53.002;6.488;2023-08-17T14:19:02;20.80;99.90
54192;DHT22;40101;53.002;6.488;2023-08-17T14:21:28;20.70;99.90
54192;DHT22;40101;53.002;6.488;2023-08-17T14:23:54;20.70;99.90
54192;DHT22;40101;53.002;6.488;2023-08-17T14:26:19;20.70;99.90
54192;DHT22;40101;53.002;6.488;2023-08-17T14:28:45;21.00;99.90
54192;DHT22;40101;53.002;6.488;2023-08-17T14:31:11;20.60;99.90
54192;DHT22;40101;53.002;6.488;2023-08-17T14:33:43;20.60;99.90
54192;DHT22;40101;53.002;6.488;2023-08-17T14:36:08;20.60;99.90
54192;DHT22;40101;53.002;6.488;2023-08-17T14:38:34;20.60;99.90
54192;DHT22;40101;53.002;6.488;2023-08-17T14:41:01;20.60;99.90
54192;DHT22;40101;53.002;6.488;2023-08-17T14:43:29;20.60;99.90
54192;DHT22;40101;53.002;6.488;2023-08-17T14:45:55;20.60;99.90
54192;DHT22;40101;53.002;6.488;2023-08-17T14:48:21;20.60;99.90
54192;DHT22;40101;53.002;6.488;2023-08-17T14:50:46;20.60;99.90
54192;DHT22;40101;53.002;6.488;2023-08-17T14:53:12;20.70;99.90
54192;DHT22;40101;53.002;6.488;2023-08-17T14:55:37;20.70;99.90
54192;DHT22;40101;53.002;6.488;2023-08-17T14:58:03;20.70;99.90
54192;DHT22;40101;53.002;6.488;2023-08-17T15:00:29;20.70;99.90
54192;DHT22;40101;53.002;6.488;2023-08-17T15:02:56;20.60;99.90
54192;DHT22;40101;53.002;6.488;2023-08-17T15:05:25;20.80;99.90
54192;DHT22;40101;53.002;6.488;2023-08-17T15:07:51;20.60;99.90
54192;DHT22;40101;53.002;6.488;2023-08-17T15:10:17;20.60;99.90
54192;DHT22;40101;53.002;6.488;2023-08-17T15:12:43;20.60;99.90
54192;DHT22;40101;53.002;6.488;2023-08-17T15:15:08;20.70;99.90
54192;DHT22;40101;53.002;6.488;2023-08-17T15:17:34;20.60;99.90
54192;DHT22;40101;53.002;6.488;2023-08-17T15:20:00;20.60;99.90
54192;DHT22;40101;53.002;6.488;2023-08-17T15:22:26;20.60;99.90
54192;DHT22;40101;53.002;6.488;2023-08-17T15:27:19;20.50;99.90
54192;DHT22;40101;53.002;6.488;2023-08-17T15:29:45;20.50;99.90
54192;DHT22;40101;53.002;6.488;2023-08-17T15:32:10;20.50;99.90
54192;DHT22;40101;53.002;6.488;2023-08-17T15:34:36;20.40;99.90
54192;DHT22;40101;53.002;6.488;2023-08-17T15:37:02;20.40;99.90